sensor_id;sensor_type;location;lat;lon;timestamp;P1;durP1;ratioP1;P2;durP2;ratioP2
65328;SDS011;51941;52.210;5.158;2024-02-26T00:01:58;4.43;;;1.70;;
65328;SDS011;51941;52.210;5.158;2024-02-26T00:04:26;6.13;;;2.03;;
65328;SDS011;51941;52.210;5.158;2024-02-26T00:06:52;3.50;;;1.20;;
65328;SDS011;51941;52.210;5.158;2024-02-26T00:09:19;4.35;;;1.27;;
65328;SDS011;51941;52.210;5.158;2024-02-26T00:11:46;3.35;;;1.33;;
65328;SDS011;51941;52.210;5.158;2024-02-26T00:14:13;6.57;;;2.38;;
65328;SDS011;51941;52.210;5.158;2024-02-26T00:16:40;4.85;;;2.00;;
65328;SDS011;51941;52.210;5.158;2024-02-26T00:19:07;3.38;;;1.23;;
65328;SDS011;51941;52.210;5.158;2024-02-26T00:21:35;5.95;;;1.77;;
65328;SDS011;51941;52.210;5.158;2024-02-26T00:24:01;7.68;;;2.08;;
65328;SDS011;51941;52.210;5.158;2024-02-26T00:26:28;5.25;;;2.00;;
65328;SDS011;51941;52.210;5.158;2024-02-26T00:28:55;4.35;;;1.85;;
65328;SDS011;51941;52.210;5.158;2024-02-26T00:31:21;4.80;;;1.45;;
65328;SDS011;51941;52.210;5.158;2024-02-26T00:33:48;4.10;;;1.45;;
65328;SDS011;51941;52.210;5.158;2024-02-26T00:36:15;6.78;;;2.15;;
65328;SDS011;51941;52.210;5.158;2024-02-26T00:38:43;3.63;;;1.50;;
65328;SDS011;51941;52.210;5.158;2024-02-26T00:41:11;5.10;;;1.83;;
65328;SDS011;51941;52.210;5.158;2024-02-26T00:43:38;4.85;;;1.55;;
65328;SDS011;51941;52.210;5.158;2024-02-26T00:46:05;5.57;;;1.90;;
65328;SDS011;51941;52.210;5.158;2024-02-26T00:48:32;5.25;;;2.15;;
65328;SDS011;51941;52.210;5.158;2024-02-26T00:50:58;6.85;;;2.20;;
65328;SDS011;51941;52.210;5.158;2024-02-26T00:53:25;5.18;;;1.83;;
65328;SDS011;51941;52.210;5.158;2024-02-26T00:55:53;4.70;;;1.85;;
65328;SDS011;51941;52.210;5.158;2024-02-26T00:58:20;5.80;;;1.98;;
65328;SDS011;51941;52.210;5.158;2024-02-26T01:00:46;4.53;;;1.70;;
65328;SDS011;51941;52.210;5.158;2024-02-26T01:03:13;6.72;;;1.65;;
65328;SDS011;51941;52.210;5.158;2024-02-26T01:05:40;4.88;;;1.60;;
65328;SDS011;51941;52.210;5.158;2024-02-26T01:08:07;3.47;;;1.48;;
65328;SDS011;51941;52.210;5.158;2024-02-26T01:10:33;6.32;;;1.92;;
65328;SDS011;51941;52.210;5.158;2024-02-26T01:13:02;9.07;;;3.00;;
65328;SDS011;51941;52.210;5.158;2024-02-26T01:15:28;2.17;;;0.90;;
65328;SDS011;51941;52.210;5.158;2024-02-26T01:17:55;4.22;;;1.88;;
65328;SDS011;51941;52.210;5.158;2024-02-26T01:20:22;5.88;;;2.20;;
65328;SDS011;51941;52.210;5.158;2024-02-26T01:22:48;5.30;;;1.98;;
65328;SDS011;51941;52.210;5.158;2024-02-26T01:25:15;6.53;;;2.20;;
65328;SDS011;51941;52.210;5.158;2024-02-26T01:27:42;6.88;;;2.72;;
65328;SDS011;51941;52.210;5.158;2024-02-26T01:30:11;6.47;;;2.13;;
65328;SDS011;51941;52.210;5.158;2024-02-26T01:32:41;3.72;;;1.83;;
65328;SDS011;51941;52.210;5.158;2024-02-26T01:35:08;3.55;;;1.17;;
65328;SDS011;51941;52.210;5.158;2024-02-26T01:37:37;3.58;;;1.73;;
65328;SDS011;51941;52.210;5.158;2024-02-26T01:40:04;6.55;;;2.40;;
65328;SDS011;51941;52.210;5.158;2024-02-26T01:42:32;6.40;;;2.58;;
65328;SDS011;51941;52.210;5.158;2024-02-26T01:44:58;8.07;;;2.30;;
65328;SDS011;51941;52.210;5.158;2024-02-26T01:47:27;6.05;;;2.33;;
65328;SDS011;51941;52.210;5.158;2024-02-26T01:49:54;7.68;;;2.33;;
65328;SDS011;51941;52.210;5.158;2024-02-26T01:52:21;5.88;;;2.03;;
65328;SDS011;51941;52.210;5.158;2024-02-26T01:54:48;4.20;;;2.33;;
65328;SDS011;51941;52.210;5.158;2024-02-26T01:57:15;10.85;;;3.65;;
65328;SDS011;51941;52.210;5.158;2024-02-26T01:59:43;6.30;;;2.75;;
65328;SDS011;51941;52.210;5.158;2024-02-26T02:02:10;5.07;;;2.35;;
65328;SDS011;51941;52.210;5.158;2024-02-26T02:04:39;6.93;;;1.52;;
65328;SDS011;51941;52.210;5.158;2024-02-26T02:07:06;9.20;;;3.47;;
65328;SDS011;51941;52.210;5.158;2024-02-26T02:09:33;6.30;;;2.42;;
65328;SDS011;51941;52.210;5.158;2024-02-26T02:11:59;9.60;;;3.08;;
65328;SDS011;51941;52.210;5.158;2024-02-26T02:14:26;10.25;;;3.70;;
65328;SDS011;51941;52.210;5.158;2024-02-26T02:16:53;9.13;;;3.67;;
65328;SDS011;51941;52.210;5.158;2024-02-26T02:19:20;5.13;;;2.03;;
65328;SDS011;51941;52.210;5.158;2024-02-26T02:21:48;9.82;;;2.97;;
65328;SDS011;51941;52.210;5.158;2024-02-26T02:24:15;6.88;;;2.47;;
65328;SDS011;51941;52.210;5.158;2024-02-26T02:26:41;8.05;;;3.03;;
65328;SDS011;51941;52.210;5.158;2024-02-26T02:29:08;8.18;;;3.00;;
65328;SDS011;51941;52.210;5.158;2024-02-26T02:31:35;7.32;;;2.40;;
65328;SDS011;51941;52.210;5.158;2024-02-26T02:34:02;6.07;;;2.55;;
65328;SDS011;51941;52.210;5.158;2024-02-26T02:36:29;6.78;;;2.35;;
65328;SDS011;51941;52.210;5.158;2024-02-26T02:38:57;7.60;;;2.50;;
65328;SDS011;51941;52.210;5.158;2024-02-26T02:41:24;7.20;;;2.65;;
65328;SDS011;51941;52.210;5.158;2024-02-26T02:43:51;6.18;;;2.78;;
65328;SDS011;51941;52.210;5.158;2024-02-26T02:46:18;4.15;;;1.63;;
65328;SDS011;51941;52.210;5.158;2024-02-26T02:48:45;7.22;;;2.45;;
65328;SDS011;51941;52.210;5.158;2024-02-26T02:51:12;9.07;;;2.47;;
65328;SDS011;51941;52.210;5.158;2024-02-26T02:53:38;6.47;;;2.35;;
65328;SDS011;51941;52.210;5.158;2024-02-26T02:56:06;7.68;;;2.78;;
65328;SDS011;51941;52.210;5.158;2024-02-26T02:58:33;9.45;;;3.50;;
65328;SDS011;51941;52.210;5.158;2024-02-26T03:01:00;10.60;;;2.40;;
65328;SDS011;51941;52.210;5.158;2024-02-26T03:03:27;6.63;;;2.83;;
65328;SDS011;51941;52.210;5.158;2024-02-26T03:05:54;8.95;;;2.42;;
65328;SDS011;51941;52.210;5.158;2024-02-26T03:08:21;6.22;;;2.88;;
65328;SDS011;51941;52.210;5.158;2024-02-26T03:10:48;6.22;;;2.05;;
65328;SDS011;51941;52.210;5.158;2024-02-26T03:13:17;8.27;;;3.15;;
65328;SDS011;51941;52.210;5.158;2024-02-26T03:15:43;5.13;;;2.08;;
65328;SDS011;51941;52.210;5.158;2024-02-26T03:18:10;8.98;;;3.72;;
65328;SDS011;51941;52.210;5.158;2024-02-26T03:20:37;9.90;;;3.22;;
65328;SDS011;51941;52.210;5.158;2024-02-26T03:23:03;8.38;;;3.53;;
65328;SDS011;51941;52.210;5.158;2024-02-26T03:25:30;10.45;;;3.47;;
65328;SDS011;51941;52.210;5.158;2024-02-26T03:27:57;6.53;;;2.08;;
65328;SDS011;51941;52.210;5.158;2024-02-26T03:30:25;16.80;;;4.43;;
65328;SDS011;51941;52.210;5.158;2024-02-26T03:32:52;5.40;;;2.22;;
65328;SDS011;51941;52.210;5.158;2024-02-26T03:35:19;6.65;;;2.22;;
65328;SDS011;51941;52.210;5.158;2024-02-26T03:37:45;5.28;;;2.25;;
65328;SDS011;51941;52.210;5.158;2024-02-26T03:40:13;8.95;;;3.30;;
65328;SDS011;51941;52.210;5.158;2024-02-26T03:42:40;7.07;;;2.72;;
65328;SDS011;51941;52.210;5.158;2024-02-26T03:45:07;3.92;;;1.88;;
65328;SDS011;51941;52.210;5.158;2024-02-26T03:47:37;8.05;;;2.97;;
65328;SDS011;51941;52.210;5.158;2024-02-26T03:50:05;7.90;;;3.03;;
65328;SDS011;51941;52.210;5.158;2024-02-26T03:52:32;7.45;;;2.92;;
65328;SDS011;51941;52.210;5.158;2024-02-26T03:54:59;9.85;;;3.63;;
65328;SDS011;51941;52.210;5.158;2024-02-26T03:57:26;10.23;;;3.95;;
65328;SDS011;51941;52.210;5.158;2024-02-26T03:59:53;8.40;;;2.97;;
65328;SDS011;51941;52.210;5.158;2024-02-26T04:02:20;8.75;;;3.13;;
65328;SDS011;51941;52.210;5.158;2024-02-26T04:04:49;8.57;;;3.08;;
65328;SDS011;51941;52.210;5.158;2024-02-26T04:07:16;11.30;;;4.47;;
65328;SDS011;51941;52.210;5.158;2024-02-26T04:09:44;12.30;;;4.57;;
65328;SDS011;51941;52.210;5.158;2024-02-26T04:12:10;8.82;;;3.13;;
65328;SDS011;51941;52.210;5.158;2024-02-26T04:14:37;7.65;;;3.03;;
65328;SDS011;51941;52.210;5.158;2024-02-26T04:17:04;10.30;;;3.42;;
65328;SDS011;51941;52.210;5.158;2024-02-26T04:19:30;11.55;;;4.40;;
65328;SDS011;51941;52.210;5.158;2024-02-26T04:21:58;8.90;;;3.47;;
65328;SDS011;51941;52.210;5.158;2024-02-26T04:24:25;9.00;;;3.22;;
65328;SDS011;51941;52.210;5.158;2024-02-26T04:26:53;8.75;;;2.38;;
65328;SDS011;51941;52.210;5.158;2024-02-26T04:29:20;8.25;;;2.28;;
65328;SDS011;51941;52.210;5.158;2024-02-26T04:31:47;9.00;;;4.03;;
65328;SDS011;51941;52.210;5.158;2024-02-26T04:34:14;8.48;;;3.70;;
65328;SDS011;51941;52.210;5.158;2024-02-26T04:36:40;6.97;;;2.83;;
65328;SDS011;51941;52.210;5.158;2024-02-26T04:39:09;8.57;;;3.42;;
65328;SDS011;51941;52.210;5.158;2024-02-26T04:41:38;6.25;;;1.35;;
65328;SDS011;51941;52.210;5.158;2024-02-26T04:44:05;7.82;;;2.35;;
65328;SDS011;51941;52.210;5.158;2024-02-26T04:46:31;7.82;;;2.97;;
65328;SDS011;51941;52.210;5.158;2024-02-26T04:48:58;6.10;;;2.25;;
65328;SDS011;51941;52.210;5.158;2024-02-26T04:51:25;5.95;;;2.45;;
65328;SDS011;51941;52.210;5.158;2024-02-26T04:53:51;8.25;;;2.70;;
65328;SDS011;51941;52.210;5.158;2024-02-26T04:56:21;4.38;;;1.92;;
65328;SDS011;51941;52.210;5.158;2024-02-26T04:58:48;7.82;;;3.05;;
65328;SDS011;51941;52.210;5.158;2024-02-26T05:01:15;7.43;;;3.05;;
65328;SDS011;51941;52.210;5.158;2024-02-26T05:03:42;7.72;;;3.50;;
65328;SDS011;51941;52.210;5.158;2024-02-26T05:06:09;7.30;;;2.95;;
65328;SDS011;51941;52.210;5.158;2024-02-26T05:08:36;7.57;;;2.88;;
65328;SDS011;51941;52.210;5.158;2024-02-26T05:11:03;7.93;;;3.00;;
65328;SDS011;51941;52.210;5.158;2024-02-26T05:13:32;9.20;;;4.07;;
65328;SDS011;51941;52.210;5.158;2024-02-26T05:15:58;4.95;;;2.22;;
65328;SDS011;51941;52.210;5.158;2024-02-26T05:18:25;6.85;;;2.63;;
65328;SDS011;51941;52.210;5.158;2024-02-26T05:20:52;7.53;;;2.92;;
65328;SDS011;51941;52.210;5.158;2024-02-26T05:23:18;6.47;;;2.67;;
65328;SDS011;51941;52.210;5.158;2024-02-26T05:25:45;10.02;;;4.07;;
65328;SDS011;51941;52.210;5.158;2024-02-26T05:28:13;6.47;;;2.53;;
65328;SDS011;51941;52.210;5.158;2024-02-26T05:30:42;7.30;;;3.47;;
65328;SDS011;51941;52.210;5.158;2024-02-26T05:33:08;10.73;;;3.25;;
65328;SDS011;51941;52.210;5.158;2024-02-26T05:35:35;5.75;;;2.60;;
65328;SDS011;51941;52.210;5.158;2024-02-26T05:38:03;7.53;;;2.75;;
65328;SDS011;51941;52.210;5.158;2024-02-26T05:40:30;12.43;;;4.35;;
65328;SDS011;51941;52.210;5.158;2024-02-26T05:42:57;8.07;;;2.75;;
65328;SDS011;51941;52.210;5.158;2024-02-26T05:45:24;7.38;;;2.80;;
65328;SDS011;51941;52.210;5.158;2024-02-26T05:47:52;6.53;;;2.72;;
65328;SDS011;51941;52.210;5.158;2024-02-26T05:50:19;7.57;;;3.10;;
65328;SDS011;51941;52.210;5.158;2024-02-26T05:52:46;7.97;;;2.95;;
65328;SDS011;51941;52.210;5.158;2024-02-26T05:55:12;6.50;;;3.05;;
65328;SDS011;51941;52.210;5.158;2024-02-26T05:57:40;7.70;;;3.58;;
65328;SDS011;51941;52.210;5.158;2024-02-26T06:00:07;10.68;;;4.43;;
65328;SDS011;51941;52.210;5.158;2024-02-26T06:02:38;10.77;;;4.10;;
65328;SDS011;51941;52.210;5.158;2024-02-26T06:05:06;9.02;;;3.25;;
65328;SDS011;51941;52.210;5.158;2024-02-26T06:07:34;12.50;;;4.15;;
65328;SDS011;51941;52.210;5.158;2024-02-26T06:10:01;12.18;;;4.95;;
65328;SDS011;51941;52.210;5.158;2024-02-26T06:12:29;13.32;;;3.78;;
65328;SDS011;51941;52.210;5.158;2024-02-26T06:14:56;14.70;;;5.80;;
65328;SDS011;51941;52.210;5.158;2024-02-26T06:17:26;11.82;;;4.82;;
65328;SDS011;51941;52.210;5.158;2024-02-26T06:19:53;8.18;;;3.85;;
65328;SDS011;51941;52.210;5.158;2024-02-26T06:22:21;12.75;;;4.32;;
65328;SDS011;51941;52.210;5.158;2024-02-26T06:24:48;11.20;;;3.90;;
65328;SDS011;51941;52.210;5.158;2024-02-26T06:27:15;8.73;;;3.28;;
65328;SDS011;51941;52.210;5.158;2024-02-26T06:29:41;6.07;;;2.67;;
65328;SDS011;51941;52.210;5.158;2024-02-26T06:32:08;9.75;;;4.00;;
65328;SDS011;51941;52.210;5.158;2024-02-26T06:34:35;11.05;;;3.70;;
65328;SDS011;51941;52.210;5.158;2024-02-26T06:37:03;11.05;;;4.22;;
65328;SDS011;51941;52.210;5.158;2024-02-26T06:39:31;13.65;;;4.57;;
65328;SDS011;51941;52.210;5.158;2024-02-26T06:41:58;14.32;;;4.80;;
65328;SDS011;51941;52.210;5.158;2024-02-26T06:44:26;8.98;;;4.22;;
65328;SDS011;51941;52.210;5.158;2024-02-26T06:46:56;17.50;;;6.47;;
65328;SDS011;51941;52.210;5.158;2024-02-26T06:49:23;8.98;;;3.50;;
65328;SDS011;51941;52.210;5.158;2024-02-26T06:51:50;10.80;;;4.15;;
65328;SDS011;51941;52.210;5.158;2024-02-26T06:54:17;14.85;;;4.90;;
65328;SDS011;51941;52.210;5.158;2024-02-26T06:56:45;8.73;;;3.97;;
65328;SDS011;51941;52.210;5.158;2024-02-26T06:59:12;9.05;;;3.95;;
65328;SDS011;51941;52.210;5.158;2024-02-26T07:01:39;19.48;;;6.05;;
65328;SDS011;51941;52.210;5.158;2024-02-26T07:04:06;16.88;;;6.30;;
65328;SDS011;51941;52.210;5.158;2024-02-26T07:06:33;14.45;;;5.03;;
65328;SDS011;51941;52.210;5.158;2024-02-26T07:09:00;15.13;;;4.05;;
65328;SDS011;51941;52.210;5.158;2024-02-26T07:11:26;14.40;;;4.50;;
65328;SDS011;51941;52.210;5.158;2024-02-26T07:13:54;9.05;;;3.70;;
65328;SDS011;51941;52.210;5.158;2024-02-26T07:16:21;10.52;;;3.92;;
65328;SDS011;51941;52.210;5.158;2024-02-26T07:18:48;14.23;;;4.90;;
65328;SDS011;51941;52.210;5.158;2024-02-26T07:21:14;12.55;;;4.75;;
65328;SDS011;51941;52.210;5.158;2024-02-26T07:23:41;8.05;;;4.18;;
65328;SDS011;51941;52.210;5.158;2024-02-26T07:26:08;10.15;;;4.07;;
65328;SDS011;51941;52.210;5.158;2024-02-26T07:28:36;11.80;;;4.97;;
65328;SDS011;51941;52.210;5.158;2024-02-26T07:31:05;3.35;;;1.58;;
65328;SDS011;51941;52.210;5.158;2024-02-26T07:33:31;11.70;;;3.58;;
65328;SDS011;51941;52.210;5.158;2024-02-26T07:36:00;7.68;;;3.38;;
65328;SDS011;51941;52.210;5.158;2024-02-26T07:38:27;7.78;;;3.20;;
65328;SDS011;51941;52.210;5.158;2024-02-26T07:40:54;8.98;;;3.83;;
65328;SDS011;51941;52.210;5.158;2024-02-26T07:43:22;12.57;;;3.70;;
65328;SDS011;51941;52.210;5.158;2024-02-26T07:45:48;10.90;;;3.97;;
65328;SDS011;51941;52.210;5.158;2024-02-26T07:48:16;14.48;;;4.70;;
65328;SDS011;51941;52.210;5.158;2024-02-26T07:50:43;10.50;;;4.70;;
65328;SDS011;51941;52.210;5.158;2024-02-26T07:53:10;7.88;;;3.20;;
65328;SDS011;51941;52.210;5.158;2024-02-26T07:55:36;9.55;;;3.33;;
65328;SDS011;51941;52.210;5.158;2024-02-26T07:58:03;10.38;;;3.15;;
65328;SDS011;51941;52.210;5.158;2024-02-26T08:00:30;5.22;;;2.67;;
65328;SDS011;51941;52.210;5.158;2024-02-26T08:02:57;8.43;;;2.55;;
65328;SDS011;51941;52.210;5.158;2024-02-26T08:05:25;10.63;;;3.95;;
65328;SDS011;51941;52.210;5.158;2024-02-26T08:07:52;3.63;;;1.85;;
65328;SDS011;51941;52.210;5.158;2024-02-26T08:10:20;9.13;;;3.13;;
65328;SDS011;51941;52.210;5.158;2024-02-26T08:12:46;4.93;;;2.00;;
65328;SDS011;51941;52.210;5.158;2024-02-26T08:15:13;7.53;;;2.72;;
65328;SDS011;51941;52.210;5.158;2024-02-26T08:17:40;8.30;;;3.15;;
65328;SDS011;51941;52.210;5.158;2024-02-26T08:20:08;8.07;;;3.53;;
65328;SDS011;51941;52.210;5.158;2024-02-26T08:22:37;9.88;;;3.60;;
65328;SDS011;51941;52.210;5.158;2024-02-26T08:25:04;5.78;;;2.60;;
65328;SDS011;51941;52.210;5.158;2024-02-26T08:27:34;6.78;;;2.20;;
65328;SDS011;51941;52.210;5.158;2024-02-26T08:30:01;3.60;;;1.55;;
65328;SDS011;51941;52.210;5.158;2024-02-26T08:32:27;7.50;;;1.83;;
65328;SDS011;51941;52.210;5.158;2024-02-26T08:34:54;6.38;;;1.77;;
65328;SDS011;51941;52.210;5.158;2024-02-26T08:37:21;5.28;;;1.80;;
65328;SDS011;51941;52.210;5.158;2024-02-26T08:39:49;4.60;;;1.63;;
65328;SDS011;51941;52.210;5.158;2024-02-26T08:42:16;5.32;;;2.17;;
65328;SDS011;51941;52.210;5.158;2024-02-26T08:44:42;3.55;;;1.35;;
65328;SDS011;51941;52.210;5.158;2024-02-26T08:47:09;5.45;;;1.73;;
65328;SDS011;51941;52.210;5.158;2024-02-26T08:49:35;17.90;;;2.13;;
65328;SDS011;51941;52.210;5.158;2024-02-26T08:52:04;5.70;;;2.17;;
65328;SDS011;51941;52.210;5.158;2024-02-26T08:54:31;4.65;;;1.48;;
65328;SDS011;51941;52.210;5.158;2024-02-26T08:56:59;7.53;;;2.38;;
65328;SDS011;51941;52.210;5.158;2024-02-26T08:59:26;5.38;;;2.00;;
65328;SDS011;51941;52.210;5.158;2024-02-26T09:01:53;6.80;;;2.55;;
65328;SDS011;51941;52.210;5.158;2024-02-26T09:04:19;3.80;;;1.70;;
65328;SDS011;51941;52.210;5.158;2024-02-26T09:06:46;6.72;;;2.53;;
65328;SDS011;51941;52.210;5.158;2024-02-26T09:09:14;6.50;;;1.85;;
65328;SDS011;51941;52.210;5.158;2024-02-26T09:11:40;8.32;;;2.55;;
65328;SDS011;51941;52.210;5.158;2024-02-26T09:14:08;6.80;;;2.47;;
65328;SDS011;51941;52.210;5.158;2024-02-26T09:16:35;4.75;;;1.88;;
65328;SDS011;51941;52.210;5.158;2024-02-26T09:19:02;7.70;;;2.65;;
65328;SDS011;51941;52.210;5.158;2024-02-26T09:21:29;4.95;;;1.70;;
65328;SDS011;51941;52.210;5.158;2024-02-26T09:23:55;7.25;;;2.15;;
65328;SDS011;51941;52.210;5.158;2024-02-26T09:26:22;3.30;;;1.17;;
65328;SDS011;51941;52.210;5.158;2024-02-26T09:28:49;3.25;;;1.10;;
65328;SDS011;51941;52.210;5.158;2024-02-26T09:31:18;3.95;;;1.45;;
65328;SDS011;51941;52.210;5.158;2024-02-26T09:33:45;3.33;;;1.13;;
65328;SDS011;51941;52.210;5.158;2024-02-26T09:36:12;3.95;;;1.55;;
65328;SDS011;51941;52.210;5.158;2024-02-26T09:38:39;6.50;;;2.70;;
65328;SDS011;51941;52.210;5.158;2024-02-26T09:41:05;4.00;;;1.50;;
65328;SDS011;51941;52.210;5.158;2024-02-26T09:43:33;8.10;;;1.98;;
65328;SDS011;51941;52.210;5.158;2024-02-26T09:46:03;6.05;;;1.90;;
65328;SDS011;51941;52.210;5.158;2024-02-26T09:48:32;3.75;;;1.40;;
65328;SDS011;51941;52.210;5.158;2024-02-26T09:51:01;3.78;;;1.55;;
65328;SDS011;51941;52.210;5.158;2024-02-26T09:53:29;5.78;;;1.98;;
65328;SDS011;51941;52.210;5.158;2024-02-26T09:55:57;6.57;;;2.22;;
65328;SDS011;51941;52.210;5.158;2024-02-26T09:58:24;9.70;;;2.05;;
65328;SDS011;51941;52.210;5.158;2024-02-26T10:00:55;2.80;;;0.90;;
65328;SDS011;51941;52.210;5.158;2024-02-26T10:03:25;3.75;;;1.48;;
65328;SDS011;51941;52.210;5.158;2024-02-26T10:05:56;9.35;;;2.15;;
65328;SDS011;51941;52.210;5.158;2024-02-26T10:08:23;6.28;;;1.83;;
65328;SDS011;51941;52.210;5.158;2024-02-26T10:10:51;8.30;;;2.75;;
65328;SDS011;51941;52.210;5.158;2024-02-26T10:13:19;3.80;;;1.25;;
65328;SDS011;51941;52.210;5.158;2024-02-26T10:15:45;6.95;;;1.98;;
65328;SDS011;51941;52.210;5.158;2024-02-26T10:18:12;3.30;;;1.40;;
65328;SDS011;51941;52.210;5.158;2024-02-26T10:20:39;4.25;;;1.80;;
65328;SDS011;51941;52.210;5.158;2024-02-26T10:23:07;4.35;;;1.40;;
65328;SDS011;51941;52.210;5.158;2024-02-26T10:25:33;5.18;;;2.42;;
65328;SDS011;51941;52.210;5.158;2024-02-26T10:28:00;3.03;;;1.20;;
65328;SDS011;51941;52.210;5.158;2024-02-26T10:30:28;6.85;;;2.50;;
65328;SDS011;51941;52.210;5.158;2024-02-26T10:32:55;3.03;;;1.38;;
65328;SDS011;51941;52.210;5.158;2024-02-26T10:35:22;3.95;;;1.27;;
65328;SDS011;51941;52.210;5.158;2024-02-26T10:37:49;5.90;;;2.58;;
65328;SDS011;51941;52.210;5.158;2024-02-26T10:40:20;3.30;;;1.25;;
65328;SDS011;51941;52.210;5.158;2024-02-26T10:42:47;5.25;;;2.25;;
65328;SDS011;51941;52.210;5.158;2024-02-26T10:45:14;5.38;;;1.67;;
65328;SDS011;51941;52.210;5.158;2024-02-26T10:47:40;5.65;;;1.80;;
65328;SDS011;51941;52.210;5.158;2024-02-26T10:50:08;3.42;;;1.15;;
65328;SDS011;51941;52.210;5.158;2024-02-26T10:52:36;7.35;;;2.30;;
65328;SDS011;51941;52.210;5.158;2024-02-26T10:55:04;5.35;;;1.60;;
65328;SDS011;51941;52.210;5.158;2024-02-26T10:57:34;9.77;;;2.40;;
65328;SDS011;51941;52.210;5.158;2024-02-26T11:02:32;5.50;;;1.90;;
65328;SDS011;51941;52.210;5.158;2024-02-26T11:05:00;4.10;;;1.85;;
65328;SDS011;51941;52.210;5.158;2024-02-26T11:07:29;6.60;;;1.95;;
65328;SDS011;51941;52.210;5.158;2024-02-26T11:09:56;8.35;;;2.58;;
65328;SDS011;51941;52.210;5.158;2024-02-26T11:12:24;8.25;;;1.90;;
65328;SDS011;51941;52.210;5.158;2024-02-26T11:14:55;5.75;;;2.25;;
65328;SDS011;51941;52.210;5.158;2024-02-26T11:17:23;4.97;;;1.30;;
65328;SDS011;51941;52.210;5.158;2024-02-26T11:19:53;3.65;;;1.58;;
65328;SDS011;51941;52.210;5.158;2024-02-26T11:22:23;8.35;;;2.55;;
65328;SDS011;51941;52.210;5.158;2024-02-26T11:24:51;3.95;;;1.20;;
65328;SDS011;51941;52.210;5.158;2024-02-26T11:27:19;6.57;;;2.33;;
65328;SDS011;51941;52.210;5.158;2024-02-26T11:29:52;6.88;;;1.98;;
65328;SDS011;51941;52.210;5.158;2024-02-26T11:32:22;3.58;;;0.98;;
65328;SDS011;51941;52.210;5.158;2024-02-26T11:34:50;4.07;;;1.13;;
65328;SDS011;51941;52.210;5.158;2024-02-26T11:37:19;5.43;;;2.15;;
65328;SDS011;51941;52.210;5.158;2024-02-26T11:39:46;5.15;;;2.20;;
65328;SDS011;51941;52.210;5.158;2024-02-26T11:42:13;6.35;;;2.50;;
65328;SDS011;51941;52.210;5.158;2024-02-26T11:44:41;6.22;;;2.17;;
65328;SDS011;51941;52.210;5.158;2024-02-26T11:47:12;3.42;;;1.42;;
65328;SDS011;51941;52.210;5.158;2024-02-26T11:49:40;3.55;;;1.35;;
65328;SDS011;51941;52.210;5.158;2024-02-26T11:52:07;5.43;;;1.90;;
65328;SDS011;51941;52.210;5.158;2024-02-26T11:54:45;3.90;;;1.15;;
65328;SDS011;51941;52.210;5.158;2024-02-26T11:57:25;6.20;;;1.85;;
65328;SDS011;51941;52.210;5.158;2024-02-26T11:59:54;4.82;;;1.63;;
65328;SDS011;51941;52.210;5.158;2024-02-26T12:05:11;6.88;;;1.80;;
65328;SDS011;51941;52.210;5.158;2024-02-26T12:07:39;8.52;;;2.33;;
65328;SDS011;51941;52.210;5.158;2024-02-26T12:10:14;4.60;;;1.50;;
65328;SDS011;51941;52.210;5.158;2024-02-26T12:12:42;7.90;;;2.47;;
65328;SDS011;51941;52.210;5.158;2024-02-26T12:15:08;6.72;;;2.08;;
65328;SDS011;51941;52.210;5.158;2024-02-26T12:17:36;8.55;;;2.05;;
65328;SDS011;51941;52.210;5.158;2024-02-26T12:20:12;4.53;;;1.42;;
65328;SDS011;51941;52.210;5.158;2024-02-26T12:22:40;6.90;;;1.88;;
65328;SDS011;51941;52.210;5.158;2024-02-26T12:25:08;4.97;;;1.85;;
65328;SDS011;51941;52.210;5.158;2024-02-26T12:27:35;5.03;;;1.63;;
65328;SDS011;51941;52.210;5.158;2024-02-26T12:30:02;4.00;;;1.40;;
65328;SDS011;51941;52.210;5.158;2024-02-26T12:32:30;3.58;;;1.52;;
65328;SDS011;51941;52.210;5.158;2024-02-26T12:34:56;4.70;;;1.77;;
65328;SDS011;51941;52.210;5.158;2024-02-26T12:37:25;7.43;;;1.48;;
65328;SDS011;51941;52.210;5.158;2024-02-26T12:39:52;4.00;;;1.70;;
65328;SDS011;51941;52.210;5.158;2024-02-26T12:42:18;7.22;;;1.70;;
65328;SDS011;51941;52.210;5.158;2024-02-26T12:44:45;5.80;;;1.60;;
65328;SDS011;51941;52.210;5.158;2024-02-26T12:47:12;5.47;;;1.48;;
65328;SDS011;51941;52.210;5.158;2024-02-26T12:49:42;5.72;;;1.95;;
65328;SDS011;51941;52.210;5.158;2024-02-26T12:52:09;3.42;;;1.20;;
65328;SDS011;51941;52.210;5.158;2024-02-26T12:54:38;4.75;;;1.58;;
65328;SDS011;51941;52.210;5.158;2024-02-26T12:57:06;4.32;;;1.50;;
65328;SDS011;51941;52.210;5.158;2024-02-26T12:59:35;5.93;;;2.17;;
65328;SDS011;51941;52.210;5.158;2024-02-26T13:02:03;5.55;;;2.17;;
65328;SDS011;51941;52.210;5.158;2024-02-26T13:04:31;6.22;;;2.22;;
65328;SDS011;51941;52.210;5.158;2024-02-26T13:06:59;3.17;;;1.50;;
65328;SDS011;51941;52.210;5.158;2024-02-26T13:09:28;4.55;;;1.73;;
65328;SDS011;51941;52.210;5.158;2024-02-26T13:11:59;5.45;;;1.63;;
65328;SDS011;51941;52.210;5.158;2024-02-26T13:14:26;4.07;;;1.52;;
65328;SDS011;51941;52.210;5.158;2024-02-26T13:16:56;3.10;;;1.27;;
65328;SDS011;51941;52.210;5.158;2024-02-26T13:19:23;5.82;;;1.58;;
65328;SDS011;51941;52.210;5.158;2024-02-26T13:21:50;6.03;;;2.10;;
65328;SDS011;51941;52.210;5.158;2024-02-26T13:24:16;3.03;;;1.05;;
65328;SDS011;51941;52.210;5.158;2024-02-26T13:26:45;4.13;;;1.38;;
65328;SDS011;51941;52.210;5.158;2024-02-26T13:29:18;4.13;;;0.98;;
65328;SDS011;51941;52.210;5.158;2024-02-26T13:31:45;3.15;;;1.27;;
65328;SDS011;51941;52.210;5.158;2024-02-26T13:34:11;4.70;;;1.67;;
65328;SDS011;51941;52.210;5.158;2024-02-26T13:36:50;11.32;;;2.17;;
65328;SDS011;51941;52.210;5.158;2024-02-26T13:39:21;3.42;;;1.17;;
65328;SDS011;51941;52.210;5.158;2024-02-26T13:41:49;4.78;;;1.45;;
65328;SDS011;51941;52.210;5.158;2024-02-26T13:44:17;2.78;;;1.10;;
65328;SDS011;51941;52.210;5.158;2024-02-26T13:46:45;4.07;;;1.30;;
65328;SDS011;51941;52.210;5.158;2024-02-26T13:49:12;5.18;;;1.95;;
65328;SDS011;51941;52.210;5.158;2024-02-26T13:51:39;5.75;;;1.75;;
65328;SDS011;51941;52.210;5.158;2024-02-26T13:54:06;7.43;;;1.95;;
65328;SDS011;51941;52.210;5.158;2024-02-26T13:56:34;5.88;;;2.25;;
65328;SDS011;51941;52.210;5.158;2024-02-26T13:59:02;2.25;;;1.10;;
65328;SDS011;51941;52.210;5.158;2024-02-26T14:01:30;2.85;;;1.13;;
65328;SDS011;51941;52.210;5.158;2024-02-26T14:03:58;4.13;;;1.48;;
65328;SDS011;51941;52.210;5.158;2024-02-26T14:06:29;3.05;;;1.25;;
65328;SDS011;51941;52.210;5.158;2024-02-26T14:08:57;3.75;;;1.85;;
65328;SDS011;51941;52.210;5.158;2024-02-26T14:11:24;3.97;;;1.52;;
65328;SDS011;51941;52.210;5.158;2024-02-26T14:13:51;7.40;;;2.08;;
65328;SDS011;51941;52.210;5.158;2024-02-26T14:16:17;5.22;;;1.48;;
65328;SDS011;51941;52.210;5.158;2024-02-26T14:18:46;7.30;;;2.25;;
65328;SDS011;51941;52.210;5.158;2024-02-26T14:21:13;3.05;;;1.05;;
65328;SDS011;51941;52.210;5.158;2024-02-26T14:23:40;4.60;;;1.30;;
65328;SDS011;51941;52.210;5.158;2024-02-26T14:26:09;5.20;;;1.70;;
65328;SDS011;51941;52.210;5.158;2024-02-26T14:28:36;3.10;;;1.05;;
65328;SDS011;51941;52.210;5.158;2024-02-26T14:31:06;6.97;;;2.03;;
65328;SDS011;51941;52.210;5.158;2024-02-26T14:33:37;3.42;;;1.15;;
65328;SDS011;51941;52.210;5.158;2024-02-26T14:36:06;4.47;;;1.80;;
65328;SDS011;51941;52.210;5.158;2024-02-26T14:38:33;2.42;;;1.13;;
65328;SDS011;51941;52.210;5.158;2024-02-26T14:41:01;4.40;;;1.40;;
65328;SDS011;51941;52.210;5.158;2024-02-26T14:43:28;3.95;;;1.42;;
65328;SDS011;51941;52.210;5.158;2024-02-26T14:45:55;6.10;;;1.65;;
65328;SDS011;51941;52.210;5.158;2024-02-26T14:48:22;3.60;;;1.20;;
65328;SDS011;51941;52.210;5.158;2024-02-26T14:50:49;4.55;;;1.70;;
65328;SDS011;51941;52.210;5.158;2024-02-26T14:53:17;4.15;;;1.48;;